sensor_id;sensor_type;location;lat;lon;timestamp;P1;durP1;ratioP1;P2;durP2;ratioP2
79759;SDS011;70512;42.122;24.732;2024-01-27T00:01:38;6.87;;;2.77;;
79759;SDS011;70512;42.122;24.732;2024-01-27T00:04:06;5.70;;;2.47;;
79759;SDS011;70512;42.122;24.732;2024-01-27T00:06:33;8.68;;;2.65;;
79759;SDS011;70512;42.122;24.732;2024-01-27T00:09:01;7.55;;;2.67;;
79759;SDS011;70512;42.122;24.732;2024-01-27T00:11:30;5.87;;;2.70;;
79759;SDS011;70512;42.122;24.732;2024-01-27T00:13:58;8.03;;;2.83;;
79759;SDS011;70512;42.122;24.732;2024-01-27T00:16:27;5.12;;;2.47;;
79759;SDS011;70512;42.122;24.732;2024-01-27T00:18:54;8.58;;;2.75;;
79759;SDS011;70512;42.122;24.732;2024-01-27T00:21:22;5.58;;;2.52;;
79759;SDS011;70512;42.122;24.732;2024-01-27T00:23:50;6.67;;;2.58;;
79759;SDS011;70512;42.122;24.732;2024-01-27T00:26:17;5.97;;;3.00;;
79759;SDS011;70512;42.122;24.732;2024-01-27T00:28:45;6.70;;;2.75;;
79759;SDS011;70512;42.122;24.732;2024-01-27T00:31:13;8.50;;;2.83;;
79759;SDS011;70512;42.122;24.732;2024-01-27T00:33:40;7.58;;;2.92;;
79759;SDS011;70512;42.122;24.732;2024-01-27T00:36:08;12.53;;;2.60;;
79759;SDS011;70512;42.122;24.732;2024-01-27T00:38:35;18.27;;;5.00;;
79759;SDS011;70512;42.122;24.732;2024-01-27T00:41:04;5.15;;;2.75;;
79759;SDS011;70512;42.122;24.732;2024-01-27T00:43:32;6.15;;;2.70;;
79759;SDS011;70512;42.122;24.732;2024-01-27T00:46:00;7.45;;;3.22;;
79759;SDS011;70512;42.122;24.732;2024-01-27T00:48:28;4.70;;;2.70;;
79759;SDS011;70512;42.122;24.732;2024-01-27T00:50:55;11.08;;;2.77;;
79759;SDS011;70512;42.122;24.732;2024-01-27T00:53:23;7.90;;;2.67;;
79759;SDS011;70512;42.122;24.732;2024-01-27T00:55:51;8.30;;;3.20;;
79759;SDS011;70512;42.122;24.732;2024-01-27T00:58:18;9.68;;;3.02;;
79759;SDS011;70512;42.122;24.732;2024-01-27T01:00:46;10.15;;;3.92;;
79759;SDS011;70512;42.122;24.732;2024-01-27T01:03:14;6.95;;;3.17;;
79759;SDS011;70512;42.122;24.732;2024-01-27T01:05:42;7.58;;;3.62;;
79759;SDS011;70512;42.122;24.732;2024-01-27T01:08:09;8.53;;;3.95;;
79759;SDS011;70512;42.122;24.732;2024-01-27T01:10:37;9.85;;;3.33;;
79759;SDS011;70512;42.122;24.732;2024-01-27T01:13:05;6.17;;;3.58;;
79759;SDS011;70512;42.122;24.732;2024-01-27T01:15:32;9.08;;;4.12;;
79759;SDS011;70512;42.122;24.732;2024-01-27T01:18:00;9.75;;;3.60;;
79759;SDS011;70512;42.122;24.732;2024-01-27T01:20:28;6.90;;;3.33;;
79759;SDS011;70512;42.122;24.732;2024-01-27T01:22:56;10.35;;;4.08;;
79759;SDS011;70512;42.122;24.732;2024-01-27T01:25:23;7.78;;;3.05;;
79759;SDS011;70512;42.122;24.732;2024-01-27T01:27:51;6.17;;;3.90;;
79759;SDS011;70512;42.122;24.732;2024-01-27T01:30:19;6.33;;;3.58;;
79759;SDS011;70512;42.122;24.732;2024-01-27T01:32:46;7.12;;;3.80;;
79759;SDS011;70512;42.122;24.732;2024-01-27T01:35:14;8.00;;;4.40;;
79759;SDS011;70512;42.122;24.732;2024-01-27T01:37:42;7.85;;;3.87;;
79759;SDS011;70512;42.122;24.732;2024-01-27T01:40:09;5.47;;;2.90;;
79759;SDS011;70512;42.122;24.732;2024-01-27T01:42:38;11.33;;;3.27;;
79759;SDS011;70512;42.122;24.732;2024-01-27T01:45:06;6.90;;;3.50;;
79759;SDS011;70512;42.122;24.732;2024-01-27T01:47:35;10.00;;;3.42;;
79759;SDS011;70512;42.122;24.732;2024-01-27T01:50:03;10.90;;;2.77;;
79759;SDS011;70512;42.122;24.732;2024-01-27T01:52:32;7.95;;;3.33;;
79759;SDS011;70512;42.122;24.732;2024-01-27T01:55:00;6.67;;;3.15;;
79759;SDS011;70512;42.122;24.732;2024-01-27T01:57:28;6.75;;;3.02;;
79759;SDS011;70512;42.122;24.732;2024-01-27T01:59:55;6.17;;;2.65;;
79759;SDS011;70512;42.122;24.732;2024-01-27T02:02:23;4.78;;;2.20;;
79759;SDS011;70512;42.122;24.732;2024-01-27T02:04:51;3.62;;;2.75;;
79759;SDS011;70512;42.122;24.732;2024-01-27T02:07:18;5.90;;;2.77;;
79759;SDS011;70512;42.122;24.732;2024-01-27T02:09:46;5.50;;;2.83;;
79759;SDS011;70512;42.122;24.732;2024-01-27T02:12:14;12.07;;;3.00;;
79759;SDS011;70512;42.122;24.732;2024-01-27T02:14:41;6.33;;;3.02;;
79759;SDS011;70512;42.122;24.732;2024-01-27T02:17:09;4.62;;;3.08;;
79759;SDS011;70512;42.122;24.732;2024-01-27T02:19:37;9.10;;;2.90;;
79759;SDS011;70512;42.122;24.732;2024-01-27T02:22:04;8.43;;;3.02;;
79759;SDS011;70512;42.122;24.732;2024-01-27T02:24:32;5.67;;;2.77;;
79759;SDS011;70512;42.122;24.732;2024-01-27T02:27:00;6.00;;;3.30;;
79759;SDS011;70512;42.122;24.732;2024-01-27T02:29:27;8.58;;;2.98;;
79759;SDS011;70512;42.122;24.732;2024-01-27T02:31:55;5.40;;;3.00;;
79759;SDS011;70512;42.122;24.732;2024-01-27T02:34:23;5.72;;;3.17;;
79759;SDS011;70512;42.122;24.732;2024-01-27T02:36:51;6.83;;;3.52;;
79759;SDS011;70512;42.122;24.732;2024-01-27T02:39:18;5.97;;;3.70;;
79759;SDS011;70512;42.122;24.732;2024-01-27T02:41:47;4.92;;;3.50;;
79759;SDS011;70512;42.122;24.732;2024-01-27T02:44:15;8.95;;;3.67;;
79759;SDS011;70512;42.122;24.732;2024-01-27T02:46:42;7.28;;;3.37;;
79759;SDS011;70512;42.122;24.732;2024-01-27T02:49:10;7.22;;;3.02;;
79759;SDS011;70512;42.122;24.732;2024-01-27T02:51:38;4.22;;;2.80;;
79759;SDS011;70512;42.122;24.732;2024-01-27T02:54:05;6.08;;;2.42;;
79759;SDS011;70512;42.122;24.732;2024-01-27T02:56:33;6.50;;;2.92;;
79759;SDS011;70512;42.122;24.732;2024-01-27T02:59:01;8.05;;;3.17;;
79759;SDS011;70512;42.122;24.732;2024-01-27T03:01:29;5.37;;;2.37;;
79759;SDS011;70512;42.122;24.732;2024-01-27T03:03:57;4.30;;;2.50;;
79759;SDS011;70512;42.122;24.732;2024-01-27T03:06:24;7.75;;;2.85;;
79759;SDS011;70512;42.122;24.732;2024-01-27T03:08:52;8.90;;;3.45;;
79759;SDS011;70512;42.122;24.732;2024-01-27T03:11:20;8.48;;;3.40;;
79759;SDS011;70512;42.122;24.732;2024-01-27T03:13:48;6.55;;;3.70;;
79759;SDS011;70512;42.122;24.732;2024-01-27T03:16:15;5.65;;;3.08;;
79759;SDS011;70512;42.122;24.732;2024-01-27T03:18:44;7.08;;;3.42;;
79759;SDS011;70512;42.122;24.732;2024-01-27T03:21:12;10.08;;;3.70;;
79759;SDS011;70512;42.122;24.732;2024-01-27T03:23:40;10.65;;;3.85;;
79759;SDS011;70512;42.122;24.732;2024-01-27T03:26:08;8.03;;;4.03;;
79759;SDS011;70512;42.122;24.732;2024-01-27T03:28:36;8.50;;;3.75;;
79759;SDS011;70512;42.122;24.732;2024-01-27T03:31:04;11.68;;;3.50;;
79759;SDS011;70512;42.122;24.732;2024-01-27T03:33:31;9.43;;;3.55;;
79759;SDS011;70512;42.122;24.732;2024-01-27T03:35:59;7.55;;;3.77;;
79759;SDS011;70512;42.122;24.732;2024-01-27T03:38:27;7.15;;;3.80;;
79759;SDS011;70512;42.122;24.732;2024-01-27T03:40:54;7.70;;;3.35;;
79759;SDS011;70512;42.122;24.732;2024-01-27T03:43:22;8.93;;;3.50;;
79759;SDS011;70512;42.122;24.732;2024-01-27T03:45:50;7.22;;;2.85;;
79759;SDS011;70512;42.122;24.732;2024-01-27T03:48:18;5.08;;;2.45;;
79759;SDS011;70512;42.122;24.732;2024-01-27T03:50:45;6.47;;;2.45;;
79759;SDS011;70512;42.122;24.732;2024-01-27T03:53:13;6.53;;;2.83;;
79759;SDS011;70512;42.122;24.732;2024-01-27T03:55:41;5.95;;;2.42;;
79759;SDS011;70512;42.122;24.732;2024-01-27T03:58:08;3.62;;;2.10;;
79759;SDS011;70512;42.122;24.732;2024-01-27T04:00:36;8.70;;;2.55;;
79759;SDS011;70512;42.122;24.732;2024-01-27T04:03:04;3.27;;;2.12;;
79759;SDS011;70512;42.122;24.732;2024-01-27T04:05:31;5.83;;;2.17;;
79759;SDS011;70512;42.122;24.732;2024-01-27T04:07:59;6.37;;;2.50;;
79759;SDS011;70512;42.122;24.732;2024-01-27T04:10:26;4.67;;;1.82;;
79759;SDS011;70512;42.122;24.732;2024-01-27T04:12:55;8.60;;;3.22;;
79759;SDS011;70512;42.122;24.732;2024-01-27T04:15:22;10.80;;;2.33;;
79759;SDS011;70512;42.122;24.732;2024-01-27T04:17:50;7.53;;;1.92;;
79759;SDS011;70512;42.122;24.732;2024-01-27T04:20:18;5.08;;;2.08;;
79759;SDS011;70512;42.122;24.732;2024-01-27T04:22:46;11.35;;;2.85;;
79759;SDS011;70512;42.122;24.732;2024-01-27T04:25:13;13.58;;;3.45;;
79759;SDS011;70512;42.122;24.732;2024-01-27T04:27:41;5.42;;;2.70;;
79759;SDS011;70512;42.122;24.732;2024-01-27T04:30:10;6.80;;;2.65;;
79759;SDS011;70512;42.122;24.732;2024-01-27T04:32:38;8.35;;;2.65;;
79759;SDS011;70512;42.122;24.732;2024-01-27T04:35:09;6.28;;;2.60;;
79759;SDS011;70512;42.122;24.732;2024-01-27T04:37:38;4.97;;;2.58;;
79759;SDS011;70512;42.122;24.732;2024-01-27T04:40:06;3.92;;;2.12;;
79759;SDS011;70512;42.122;24.732;2024-01-27T04:42:34;4.55;;;2.08;;
79759;SDS011;70512;42.122;24.732;2024-01-27T04:45:03;4.47;;;1.95;;
79759;SDS011;70512;42.122;24.732;2024-01-27T04:47:32;6.70;;;2.27;;
79759;SDS011;70512;42.122;24.732;2024-01-27T04:49:59;4.45;;;2.30;;
79759;SDS011;70512;42.122;24.732;2024-01-27T04:52:27;11.20;;;3.00;;
79759;SDS011;70512;42.122;24.732;2024-01-27T04:54:55;9.88;;;2.77;;
79759;SDS011;70512;42.122;24.732;2024-01-27T04:57:23;8.40;;;2.62;;
79759;SDS011;70512;42.122;24.732;2024-01-27T04:59:51;5.90;;;2.70;;
79759;SDS011;70512;42.122;24.732;2024-01-27T05:02:18;14.85;;;3.98;;
79759;SDS011;70512;42.122;24.732;2024-01-27T05:04:46;9.30;;;3.22;;
79759;SDS011;70512;42.122;24.732;2024-01-27T05:07:13;5.62;;;3.05;;
79759;SDS011;70512;42.122;24.732;2024-01-27T05:09:41;9.63;;;3.05;;
79759;SDS011;70512;42.122;24.732;2024-01-27T05:12:09;9.65;;;3.27;;
79759;SDS011;70512;42.122;24.732;2024-01-27T05:14:36;14.18;;;3.80;;
79759;SDS011;70512;42.122;24.732;2024-01-27T05:17:04;5.53;;;2.83;;
79759;SDS011;70512;42.122;24.732;2024-01-27T05:19:32;9.03;;;3.72;;
79759;SDS011;70512;42.122;24.732;2024-01-27T05:21:59;10.55;;;3.20;;
79759;SDS011;70512;42.122;24.732;2024-01-27T05:24:27;6.08;;;2.50;;
79759;SDS011;70512;42.122;24.732;2024-01-27T05:26:55;5.87;;;2.40;;
79759;SDS011;70512;42.122;24.732;2024-01-27T05:29:23;4.45;;;2.20;;
79759;SDS011;70512;42.122;24.732;2024-01-27T05:31:50;6.97;;;2.35;;
79759;SDS011;70512;42.122;24.732;2024-01-27T05:34:18;3.85;;;2.15;;
79759;SDS011;70512;42.122;24.732;2024-01-27T05:36:47;5.30;;;2.20;;
79759;SDS011;70512;42.122;24.732;2024-01-27T05:39:14;7.00;;;2.98;;
79759;SDS011;70512;42.122;24.732;2024-01-27T05:41:42;6.15;;;2.75;;
79759;SDS011;70512;42.122;24.732;2024-01-27T05:44:10;5.87;;;2.58;;
79759;SDS011;70512;42.122;24.732;2024-01-27T05:46:38;3.95;;;2.35;;
79759;SDS011;70512;42.122;24.732;2024-01-27T05:49:06;4.92;;;2.15;;
79759;SDS011;70512;42.122;24.732;2024-01-27T05:51:33;6.50;;;2.65;;
79759;SDS011;70512;42.122;24.732;2024-01-27T05:54:01;7.50;;;2.80;;
79759;SDS011;70512;42.122;24.732;2024-01-27T05:56:29;3.87;;;2.17;;
79759;SDS011;70512;42.122;24.732;2024-01-27T05:58:56;4.33;;;2.50;;
79759;SDS011;70512;42.122;24.732;2024-01-27T06:01:24;3.70;;;2.35;;
79759;SDS011;70512;42.122;24.732;2024-01-27T06:03:52;8.60;;;2.70;;
79759;SDS011;70512;42.122;24.732;2024-01-27T06:06:19;8.50;;;3.25;;
79759;SDS011;70512;42.122;24.732;2024-01-27T06:08:47;9.45;;;3.22;;
79759;SDS011;70512;42.122;24.732;2024-01-27T06:11:22;8.83;;;3.40;;
79759;SDS011;70512;42.122;24.732;2024-01-27T06:13:50;10.05;;;4.22;;
79759;SDS011;70512;42.122;24.732;2024-01-27T06:16:18;10.05;;;4.22;;
79759;SDS011;70512;42.122;24.732;2024-01-27T06:18:46;8.35;;;3.58;;
79759;SDS011;70512;42.122;24.732;2024-01-27T06:21:13;8.25;;;4.05;;
79759;SDS011;70512;42.122;24.732;2024-01-27T06:23:41;7.85;;;3.40;;
79759;SDS011;70512;42.122;24.732;2024-01-27T06:26:09;10.43;;;2.98;;
79759;SDS011;70512;42.122;24.732;2024-01-27T06:28:37;7.95;;;2.60;;
79759;SDS011;70512;42.122;24.732;2024-01-27T06:31:04;7.15;;;2.80;;
79759;SDS011;70512;42.122;24.732;2024-01-27T06:33:34;5.90;;;2.83;;
79759;SDS011;70512;42.122;24.732;2024-01-27T06:36:02;7.30;;;2.90;;
79759;SDS011;70512;42.122;24.732;2024-01-27T06:38:30;7.83;;;3.87;;
79759;SDS011;70512;42.122;24.732;2024-01-27T06:40:57;15.43;;;6.60;;
79759;SDS011;70512;42.122;24.732;2024-01-27T06:43:25;10.70;;;3.65;;
79759;SDS011;70512;42.122;24.732;2024-01-27T06:45:53;9.68;;;5.10;;
79759;SDS011;70512;42.122;24.732;2024-01-27T06:48:22;10.32;;;5.30;;
79759;SDS011;70512;42.122;24.732;2024-01-27T06:50:52;10.15;;;4.45;;
79759;SDS011;70512;42.122;24.732;2024-01-27T06:53:20;12.68;;;4.35;;
79759;SDS011;70512;42.122;24.732;2024-01-27T06:55:48;20.95;;;10.98;;
79759;SDS011;70512;42.122;24.732;2024-01-27T06:58:15;11.70;;;4.97;;
79759;SDS011;70512;42.122;24.732;2024-01-27T07:00:43;19.80;;;6.08;;
79759;SDS011;70512;42.122;24.732;2024-01-27T07:03:11;9.58;;;4.37;;
79759;SDS011;70512;42.122;24.732;2024-01-27T07:05:39;10.85;;;5.03;;
79759;SDS011;70512;42.122;24.732;2024-01-27T07:08:06;13.95;;;6.42;;
79759;SDS011;70512;42.122;24.732;2024-01-27T07:10:37;16.05;;;5.53;;
79759;SDS011;70512;42.122;24.732;2024-01-27T07:13:05;12.53;;;6.40;;
79759;SDS011;70512;42.122;24.732;2024-01-27T07:15:33;12.63;;;4.40;;
79759;SDS011;70512;42.122;24.732;2024-01-27T07:18:02;13.13;;;3.92;;
79759;SDS011;70512;42.122;24.732;2024-01-27T07:20:31;9.10;;;3.52;;
79759;SDS011;70512;42.122;24.732;2024-01-27T07:22:59;9.53;;;4.62;;
79759;SDS011;70512;42.122;24.732;2024-01-27T07:25:26;9.13;;;4.00;;
79759;SDS011;70512;42.122;24.732;2024-01-27T07:27:55;11.43;;;4.55;;
79759;SDS011;70512;42.122;24.732;2024-01-27T07:30:23;11.97;;;4.42;;
79759;SDS011;70512;42.122;24.732;2024-01-27T07:32:50;10.58;;;3.98;;
79759;SDS011;70512;42.122;24.732;2024-01-27T07:35:18;6.22;;;3.27;;
79759;SDS011;70512;42.122;24.732;2024-01-27T07:37:46;8.65;;;3.83;;
79759;SDS011;70512;42.122;24.732;2024-01-27T07:40:13;8.55;;;3.33;;
79759;SDS011;70512;42.122;24.732;2024-01-27T07:42:41;7.80;;;2.98;;
79759;SDS011;70512;42.122;24.732;2024-01-27T07:45:09;9.53;;;3.80;;
79759;SDS011;70512;42.122;24.732;2024-01-27T07:47:36;7.87;;;4.28;;
79759;SDS011;70512;42.122;24.732;2024-01-27T07:50:04;6.03;;;3.10;;
79759;SDS011;70512;42.122;24.732;2024-01-27T07:52:32;8.35;;;3.15;;
79759;SDS011;70512;42.122;24.732;2024-01-27T07:55:00;8.98;;;3.77;;
79759;SDS011;70512;42.122;24.732;2024-01-27T07:57:28;8.33;;;4.70;;
79759;SDS011;70512;42.122;24.732;2024-01-27T07:59:55;7.90;;;3.67;;
79759;SDS011;70512;42.122;24.732;2024-01-27T08:02:23;6.42;;;2.80;;
79759;SDS011;70512;42.122;24.732;2024-01-27T08:04:52;8.35;;;3.27;;
79759;SDS011;70512;42.122;24.732;2024-01-27T08:07:20;14.33;;;5.08;;
79759;SDS011;70512;42.122;24.732;2024-01-27T08:09:47;13.85;;;5.50;;
79759;SDS011;70512;42.122;24.732;2024-01-27T08:12:15;10.98;;;4.10;;
79759;SDS011;70512;42.122;24.732;2024-01-27T08:14:43;12.20;;;4.00;;
79759;SDS011;70512;42.122;24.732;2024-01-27T08:17:10;7.30;;;3.25;;
79759;SDS011;70512;42.122;24.732;2024-01-27T08:19:39;10.32;;;3.92;;
79759;SDS011;70512;42.122;24.732;2024-01-27T08:22:07;11.95;;;3.25;;
79759;SDS011;70512;42.122;24.732;2024-01-27T08:24:35;6.55;;;3.45;;
79759;SDS011;70512;42.122;24.732;2024-01-27T08:27:03;12.28;;;4.28;;
79759;SDS011;70512;42.122;24.732;2024-01-27T08:29:31;12.10;;;3.17;;
79759;SDS011;70512;42.122;24.732;2024-01-27T08:31:58;7.37;;;3.22;;
79759;SDS011;70512;42.122;24.732;2024-01-27T08:34:27;10.20;;;3.90;;
79759;SDS011;70512;42.122;24.732;2024-01-27T08:36:59;11.20;;;3.10;;
79759;SDS011;70512;42.122;24.732;2024-01-27T08:39:25;8.40;;;3.20;;
79759;SDS011;70512;42.122;24.732;2024-01-27T08:41:53;6.47;;;2.75;;
79759;SDS011;70512;42.122;24.732;2024-01-27T08:44:20;10.38;;;3.67;;
79759;SDS011;70512;42.122;24.732;2024-01-27T08:46:49;10.58;;;2.85;;
79759;SDS011;70512;42.122;24.732;2024-01-27T08:49:16;12.05;;;3.00;;
79759;SDS011;70512;42.122;24.732;2024-01-27T08:51:44;3.22;;;2.12;;
79759;SDS011;70512;42.122;24.732;2024-01-27T08:54:12;8.40;;;2.90;;
79759;SDS011;70512;42.122;24.732;2024-01-27T08:56:40;4.00;;;2.40;;
79759;SDS011;70512;42.122;24.732;2024-01-27T08:59:07;9.33;;;3.35;;
79759;SDS011;70512;42.122;24.732;2024-01-27T09:01:35;7.37;;;2.47;;
79759;SDS011;70512;42.122;24.732;2024-01-27T09:04:03;4.53;;;2.42;;
79759;SDS011;70512;42.122;24.732;2024-01-27T09:06:30;3.67;;;2.50;;
79759;SDS011;70512;42.122;24.732;2024-01-27T09:08:58;6.67;;;2.60;;
79759;SDS011;70512;42.122;24.732;2024-01-27T09:11:26;7.58;;;2.83;;
79759;SDS011;70512;42.122;24.732;2024-01-27T09:13:56;8.48;;;2.77;;
79759;SDS011;70512;42.122;24.732;2024-01-27T09:16:24;9.38;;;2.52;;
79759;SDS011;70512;42.122;24.732;2024-01-27T09:18:51;4.58;;;3.00;;
79759;SDS011;70512;42.122;24.732;2024-01-27T09:21:19;6.70;;;2.58;;
79759;SDS011;70512;42.122;24.732;2024-01-27T09:23:49;8.43;;;2.40;;
79759;SDS011;70512;42.122;24.732;2024-01-27T09:26:16;5.70;;;3.35;;
79759;SDS011;70512;42.122;24.732;2024-01-27T09:28:44;6.72;;;3.08;;
79759;SDS011;70512;42.122;24.732;2024-01-27T09:31:14;12.25;;;3.25;;
79759;SDS011;70512;42.122;24.732;2024-01-27T09:33:41;6.37;;;2.75;;
79759;SDS011;70512;42.122;24.732;2024-01-27T09:36:09;7.03;;;3.17;;
79759;SDS011;70512;42.122;24.732;2024-01-27T09:38:37;20.65;;;4.47;;
79759;SDS011;70512;42.122;24.732;2024-01-27T09:41:04;5.85;;;2.85;;
79759;SDS011;70512;42.122;24.732;2024-01-27T09:43:33;7.65;;;2.67;;
79759;SDS011;70512;42.122;24.732;2024-01-27T09:46:02;6.92;;;3.00;;
79759;SDS011;70512;42.122;24.732;2024-01-27T09:48:30;4.15;;;2.47;;
79759;SDS011;70512;42.122;24.732;2024-01-27T09:50:59;8.88;;;2.65;;
79759;SDS011;70512;42.122;24.732;2024-01-27T09:53:28;9.85;;;3.12;;
79759;SDS011;70512;42.122;24.732;2024-01-27T09:55:59;6.35;;;3.05;;
79759;SDS011;70512;42.122;24.732;2024-01-27T09:58:29;6.90;;;2.70;;
79759;SDS011;70512;42.122;24.732;2024-01-27T10:00:58;5.60;;;3.10;;
79759;SDS011;70512;42.122;24.732;2024-01-27T10:03:27;9.30;;;2.40;;
79759;SDS011;70512;42.122;24.732;2024-01-27T10:05:56;5.17;;;2.98;;
79759;SDS011;70512;42.122;24.732;2024-01-27T10:08:24;6.60;;;3.72;;
79759;SDS011;70512;42.122;24.732;2024-01-27T10:10:53;5.37;;;3.00;;
79759;SDS011;70512;42.122;24.732;2024-01-27T10:13:22;7.35;;;3.00;;
79759;SDS011;70512;42.122;24.732;2024-01-27T10:16:08;7.42;;;3.27;;
79759;SDS011;70512;42.122;24.732;2024-01-27T10:18:38;5.90;;;3.20;;
79759;SDS011;70512;42.122;24.732;2024-01-27T10:21:16;13.00;;;7.78;;
79759;SDS011;70512;42.122;24.732;2024-01-27T10:23:46;16.82;;;9.70;;
79759;SDS011;70512;42.122;24.732;2024-01-27T10:26:14;28.40;;;15.25;;
79759;SDS011;70512;42.122;24.732;2024-01-27T10:28:41;37.08;;;20.88;;
79759;SDS011;70512;42.122;24.732;2024-01-27T10:31:11;23.85;;;13.50;;
79759;SDS011;70512;42.122;24.732;2024-01-27T10:33:39;10.95;;;6.42;;
79759;SDS011;70512;42.122;24.732;2024-01-27T10:36:08;11.57;;;6.78;;
79759;SDS011;70512;42.122;24.732;2024-01-27T10:38:41;13.30;;;8.20;;
79759;SDS011;70512;42.122;24.732;2024-01-27T10:41:08;7.00;;;4.20;;
79759;SDS011;70512;42.122;24.732;2024-01-27T10:43:37;6.15;;;2.30;;
79759;SDS011;70512;42.122;24.732;2024-01-27T10:46:07;3.95;;;2.40;;
79759;SDS011;70512;42.122;24.732;2024-01-27T10:48:35;5.40;;;2.25;;
79759;SDS011;70512;42.122;24.732;2024-01-27T10:51:03;4.55;;;2.52;;
79759;SDS011;70512;42.122;24.732;2024-01-27T10:53:36;3.05;;;2.20;;
79759;SDS011;70512;42.122;24.732;2024-01-27T10:56:05;11.20;;;3.50;;
79759;SDS011;70512;42.122;24.732;2024-01-27T10:58:35;3.83;;;2.20;;
79759;SDS011;70512;42.122;24.732;2024-01-27T11:01:05;6.50;;;1.85;;
79759;SDS011;70512;42.122;24.732;2024-01-27T11:03:36;4.17;;;2.12;;
79759;SDS011;70512;42.122;24.732;2024-01-27T11:06:05;5.28;;;2.37;;
79759;SDS011;70512;42.122;24.732;2024-01-27T11:08:34;6.78;;;2.72;;
79759;SDS011;70512;42.122;24.732;2024-01-27T11:11:03;4.17;;;1.87;;
79759;SDS011;70512;42.122;24.732;2024-01-27T11:13:30;2.12;;;1.75;;
79759;SDS011;70512;42.122;24.732;2024-01-27T11:15:59;4.20;;;2.25;;
79759;SDS011;70512;42.122;24.732;2024-01-27T11:18:27;10.60;;;2.55;;
79759;SDS011;70512;42.122;24.732;2024-01-27T11:20:58;1.90;;;1.70;;
79759;SDS011;70512;42.122;24.732;2024-01-27T11:23:32;4.50;;;2.02;;
79759;SDS011;70512;42.122;24.732;2024-01-27T11:26:07;10.00;;;4.75;;
79759;SDS011;70512;42.122;24.732;2024-01-27T11:28:38;3.52;;;1.72;;
79759;SDS011;70512;42.122;24.732;2024-01-27T11:31:07;5.90;;;2.30;;
79759;SDS011;70512;42.122;24.732;2024-01-27T11:33:42;4.25;;;2.10;;
79759;SDS011;70512;42.122;24.732;2024-01-27T11:36:18;3.67;;;1.90;;
79759;SDS011;70512;42.122;24.732;2024-01-27T11:38:48;3.37;;;1.70;;
79759;SDS011;70512;42.122;24.732;2024-01-27T11:41:27;6.85;;;2.33;;
79759;SDS011;70512;42.122;24.732;2024-01-27T11:43:56;3.83;;;2.40;;
79759;SDS011;70512;42.122;24.732;2024-01-27T11:46:28;5.47;;;2.00;;
79759;SDS011;70512;42.122;24.732;2024-01-27T11:48:56;3.02;;;2.20;;
79759;SDS011;70512;42.122;24.732;2024-01-27T11:51:24;3.22;;;2.40;;
79759;SDS011;70512;42.122;24.732;2024-01-27T11:53:52;5.87;;;1.85;;
79759;SDS011;70512;42.122;24.732;2024-01-27T11:56:19;3.17;;;2.05;;
79759;SDS011;70512;42.122;24.732;2024-01-27T11:58:48;7.33;;;2.90;;
79759;SDS011;70512;42.122;24.732;2024-01-27T12:01:16;2.52;;;2.30;;
79759;SDS011;70512;42.122;24.732;2024-01-27T12:03:44;2.33;;;1.90;;
79759;SDS011;70512;42.122;24.732;2024-01-27T12:06:11;3.92;;;2.25;;
79759;SDS011;70512;42.122;24.732;2024-01-27T12:08:40;4.58;;;2.15;;
79759;SDS011;70512;42.122;24.732;2024-01-27T12:11:13;2.65;;;2.10;;
79759;SDS011;70512;42.122;24.732;2024-01-27T12:13:41;2.85;;;1.98;;
79759;SDS011;70512;42.122;24.732;2024-01-27T12:16:09;6.17;;;4.72;;
79759;SDS011;70512;42.122;24.732;2024-01-27T12:18:37;4.05;;;2.55;;
79759;SDS011;70512;42.122;24.732;2024-01-27T12:21:05;7.28;;;3.00;;
79759;SDS011;70512;42.122;24.732;2024-01-27T12:23:33;8.28;;;2.62;;
79759;SDS011;70512;42.122;24.732;2024-01-27T12:26:00;4.65;;;4.08;;
79759;SDS011;70512;42.122;24.732;2024-01-27T12:28:30;6.15;;;1.98;;
79759;SDS011;70512;42.122;24.732;2024-01-27T12:30:57;7.67;;;3.25;;
79759;SDS011;70512;42.122;24.732;2024-01-27T12:33:25;2.98;;;2.12;;
79759;SDS011;70512;42.122;24.732;2024-01-27T12:35:53;2.77;;;2.08;;
79759;SDS011;70512;42.122;24.732;2024-01-27T12:38:22;3.45;;;2.37;;
79759;SDS011;70512;42.122;24.732;2024-01-27T12:40:49;2.25;;;2.00;;
79759;SDS011;70512;42.122;24.732;2024-01-27T12:43:17;2.67;;;1.72;;
79759;SDS011;70512;42.122;24.732;2024-01-27T12:45:45;2.67;;;2.10;;
79759;SDS011;70512;42.122;24.732;2024-01-27T12:48:13;2.22;;;2.02;;
79759;SDS011;70512;42.122;24.732;2024-01-27T12:50:40;2.37;;;1.90;;
79759;SDS011;70512;42.122;24.732;2024-01-27T12:53:08;3.65;;;2.22;;
79759;SDS011;70512;42.122;24.732;2024-01-27T12:55:36;3.75;;;2.42;;
79759;SDS011;70512;42.122;24.732;2024-01-27T12:58:04;5.37;;;2.22;;
79759;SDS011;70512;42.122;24.732;2024-01-27T13:00:31;4.58;;;2.15;;
79759;SDS011;70512;42.122;24.732;2024-01-27T13:02:59;3.60;;;2.47;;
79759;SDS011;70512;42.122;24.732;2024-01-27T13:05:29;2.70;;;2.05;;
79759;SDS011;70512;42.122;24.732;2024-01-27T13:08:00;4.12;;;2.65;;
79759;SDS011;70512;42.122;24.732;2024-01-27T13:10:27;2.52;;;2.05;;
79759;SDS011;70512;42.122;24.732;2024-01-27T13:12:55;4.62;;;2.40;;
79759;SDS011;70512;42.122;24.732;2024-01-27T13:15:24;3.50;;;1.87;;
79759;SDS011;70512;42.122;24.732;2024-01-27T13:17:52;3.42;;;2.20;;
79759;SDS011;70512;42.122;24.732;2024-01-27T13:20:19;3.95;;;2.87;;
79759;SDS011;70512;42.122;24.732;2024-01-27T13:22:47;2.52;;;2.30;;
79759;SDS011;70512;42.122;24.732;2024-01-27T13:25:15;4.62;;;2.55;;
79759;SDS011;70512;42.122;24.732;2024-01-27T13:27:43;4.60;;;2.70;;
79759;SDS011;70512;42.122;24.732;2024-01-27T13:30:11;4.58;;;2.20;;
79759;SDS011;70512;42.122;24.732;2024-01-27T13:32:39;3.83;;;2.52;;
79759;SDS011;70512;42.122;24.732;2024-01-27T13:35:07;5.25;;;2.30;;
79759;SDS011;70512;42.122;24.732;2024-01-27T13:37:35;3.12;;;1.98;;
79759;SDS011;70512;42.122;24.732;2024-01-27T13:40:03;3.00;;;1.87;;
79759;SDS011;70512;42.122;24.732;2024-01-27T13:42:33;4.47;;;2.60;;
79759;SDS011;70512;42.122;24.732;2024-01-27T13:45:01;7.67;;;2.47;;
79759;SDS011;70512;42.122;24.732;2024-01-27T13:47:29;2.47;;;2.00;;
79759;SDS011;70512;42.122;24.732;2024-01-27T13:49:57;2.70;;;2.45;;
79759;SDS011;70512;42.122;24.732;2024-01-27T13:52:25;3.90;;;2.20;;
79759;SDS011;70512;42.122;24.732;2024-01-27T13:54:54;2.85;;;2.35;;
79759;SDS011;70512;42.122;24.732;2024-01-27T13:57:22;6.17;;;4.65;;
79759;SDS011;70512;42.122;24.732;2024-01-27T13:59:49;4.67;;;2.37;;
79759;SDS011;70512;42.122;24.732;2024-01-27T14:02:17;6.55;;;2.45;;
79759;SDS011;70512;42.122;24.732;2024-01-27T14:04:45;4.20;;;2.05;;
79759;SDS011;70512;42.122;24.732;2024-01-27T14:07:13;5.62;;;2.65;;
79759;SDS011;70512;42.122;24.732;2024-01-27T14:09:41;5.90;;;2.67;;
79759;SDS011;70512;42.122;24.732;2024-01-27T14:12:10;2.55;;;2.30;;
79759;SDS011;70512;42.122;24.732;2024-01-27T14:14:38;4.30;;;2.60;;
79759;SDS011;70512;42.122;24.732;2024-01-27T14:17:07;3.00;;;2.60;;
79759;SDS011;70512;42.122;24.732;2024-01-27T14:19:35;5.33;;;3.02;;
79759;SDS011;70512;42.122;24.732;2024-01-27T14:22:03;6.10;;;3.05;;
79759;SDS011;70512;42.122;24.732;2024-01-27T14:24:32;2.40;;;2.00;;
79759;SDS011;70512;42.122;24.732;2024-01-27T14:26:59;5.62;;;2.45;;
79759;SDS011;70512;42.122;24.732;2024-01-27T14:29:27;5.12;;;2.22;;
79759;SDS011;70512;42.122;24.732;2024-01-27T14:31:55;4.85;;;2.70;;
79759;SDS011;70512;42.122;24.732;2024-01-27T14:34:24;3.00;;;2.10;;
79759;SDS011;70512;42.122;24.732;2024-01-27T14:36:52;2.25;;;1.65;;